F226 LFPZ-LFPZ
Flight info
| Callsign | F226 |
|---|---|
| Flight time | 0h 2m |
| Altitude | 5000 |
| Route | 484917N0020203E DCT 485049N0020656E DCT 484837N0020942E |
| Aircraft | P06T/L-SBDGRY/S |
Departure
| Time | 2026-05-07 17:28 |
|---|---|
| Airport | Saint-Cyr-l'École Airport (LFPZ) |
Arrival
| Time | 2026-05-07 17:30 |
|---|---|
| Airport | Saint-Cyr-l'École Airport (LFPZ) |
| Time | Latitude | Longitude | Altitude | Speed | Heading |
|---|---|---|---|---|---|
| 2026-05-07 17:12 | 48.81026 | 2.06941 | 380 ft | 0 kts | 125° |
| 2026-05-07 17:23 | 48.81025 | 2.06941 | 380 ft | 1 kts | 126° |
| 2026-05-07 17:24 | 48.81007 | 2.06998 | 380 ft | 11 kts | 112° |
| 2026-05-07 17:24 | 48.80961 | 2.07122 | 380 ft | 16 kts | 127° |
| 2026-05-07 17:24 | 48.80885 | 2.07278 | 380 ft | 18 kts | 123° |
| 2026-05-07 17:24 | 48.80880 | 2.07343 | 380 ft | 8 kts | 24° |
| 2026-05-07 17:25 | 48.80962 | 2.07342 | 380 ft | 15 kts | 18° |
| 2026-05-07 17:25 | 48.81044 | 2.07305 | 380 ft | 5 kts | 283° |
| 2026-05-07 17:25 | 48.81044 | 2.07303 | 380 ft | 0 kts | 283° |
| 2026-05-07 17:27 | 48.81093 | 2.07143 | 381 ft | 52 kts | 292° |
| 2026-05-07 17:27 | 48.81307 | 2.06374 | 468 ft | 91 kts | 291° |
| 2026-05-07 17:27 | 48.81498 | 2.05452 | 770 ft | 92 kts | 283° |
| 2026-05-07 17:27 | 48.81625 | 2.04453 | 949 ft | 105 kts | 264° |
| 2026-05-07 17:28 | 48.81168 | 2.03495 | 1122 ft | 117 kts | 214° |
| 2026-05-07 17:28 | 48.80470 | 2.02854 | 1361 ft | 119 kts | 211° |
| 2026-05-07 17:28 | 48.79796 | 2.02228 | 1483 ft | 113 kts | 209° |
| 2026-05-07 17:28 | 48.79129 | 2.01638 | 1453 ft | 104 kts | 198° |
| 2026-05-07 17:29 | 48.78532 | 2.01850 | 1328 ft | 92 kts | 130° |
| 2026-05-07 17:29 | 48.78238 | 2.02667 | 1112 ft | 89 kts | 115° |
| 2026-05-07 17:29 | 48.78065 | 2.03538 | 933 ft | 82 kts | 84° |
| 2026-05-07 17:29 | 48.78420 | 2.04002 | 863 ft | 66 kts | 8° |
| 2026-05-07 17:30 | 48.78700 | 2.03502 | 724 ft | 78 kts | 264° |
| 2026-05-07 17:30 | 48.78693 | 2.02709 | 541 ft | 69 kts | 274° |
| 2026-05-07 17:30 | 48.78724 | 2.02157 | 540 ft | 32 kts | 274° |
| 2026-05-07 17:30 | 48.78744 | 2.01986 | 540 ft | 12 kts | 302° |
| 2026-05-07 17:31 | 48.78796 | 2.01882 | 540 ft | 13 kts | 310° |
| 2026-05-07 17:31 | 48.78854 | 2.01875 | 540 ft | 9 kts | 62° |
| 2026-05-07 17:31 | 48.78890 | 2.01940 | 540 ft | 5 kts | 95° |
| 2026-05-07 17:31 | 48.78882 | 2.02002 | 540 ft | 12 kts | 117° |
| 2026-05-07 17:32 | 48.78865 | 2.02118 | 540 ft | 11 kts | 99° |
| 2026-05-07 17:32 | 48.78870 | 2.02210 | 540 ft | 6 kts | 33° |
| 2026-05-07 17:32 | 48.78875 | 2.02270 | 540 ft | 4 kts | 147° |
| 2026-05-07 17:32 | 48.78868 | 2.02298 | 540 ft | 5 kts | 147° |
| 2026-05-07 17:33 | 48.78842 | 2.02356 | 540 ft | 4 kts | 164° |
| 2026-05-07 17:33 | 48.78810 | 2.02401 | 540 ft | 6 kts | 92° |
| 2026-05-07 17:33 | 48.78776 | 2.02461 | 540 ft | 8 kts | 178° |
| 2026-05-07 17:33 | 48.78733 | 2.02496 | 540 ft | 4 kts | 83° |
| 2026-05-07 17:34 | 48.78929 | 2.02206 | 543 ft | 0 kts | 201° |
| 2026-05-07 17:34 | 48.78930 | 2.02182 | 540 ft | 0 kts | 150° |
| 2026-05-07 17:34 | 48.78921 | 2.02202 | 540 ft | 4 kts | 152° |
| 2026-05-07 17:34 | 48.78951 | 2.02196 | 543 ft | 0 kts | 173° |
| 2026-05-07 17:35 | 48.78950 | 2.02198 | 540 ft | 1 kts | 108° |
| 2026-05-07 17:35 | 48.78949 | 2.02202 | 540 ft | 0 kts | 107° |
| 2026-05-07 17:35 | 48.78949 | 2.02203 | 540 ft | 0 kts | 107° |
| 2026-05-07 17:35 | 48.78948 | 2.02203 | 540 ft | 0 kts | 107° |
| 2026-05-07 17:36 | 48.78949 | 2.02203 | 540 ft | 0 kts | 107° |
| 2026-05-07 17:36 | 48.78948 | 2.02203 | 540 ft | 0 kts | 107° |
| 2026-05-07 17:37 | 48.78949 | 2.02203 | 540 ft | 0 kts | 107° |
| 2026-05-07 17:37 | 48.78948 | 2.02204 | 540 ft | 0 kts | 107° |
| 2026-05-07 17:38 | 48.78948 | 2.02207 | 540 ft | 1 kts | 107° |
| 2026-05-07 17:38 | 48.78945 | 2.02220 | 540 ft | 0 kts | 114° |
| 2026-05-07 17:38 | 48.78930 | 2.02213 | 540 ft | 4 kts | 134° |
| 2026-05-07 17:39 | 48.78912 | 2.02241 | 540 ft | 7 kts | 170° |
| 2026-05-07 17:39 | 48.78838 | 2.02353 | 540 ft | 26 kts | 110° |
| 2026-05-07 17:39 | 48.78780 | 2.02572 | 540 ft | 20 kts | 117° |
| 2026-05-07 17:39 | 48.78728 | 2.02762 | 540 ft | 20 kts | 102° |
| 2026-05-07 17:40 | 48.78699 | 2.02967 | 540 ft | 18 kts | 118° |
| 2026-05-07 17:40 | 48.78651 | 2.02982 | 540 ft | 9 kts | 198° |
| 2026-05-07 17:40 | 48.78592 | 2.02948 | 540 ft | 9 kts | 218° |
| 2026-05-07 17:40 | 48.78565 | 2.02882 | 540 ft | 7 kts | 286° |
| 2026-05-07 17:41 | 48.78608 | 2.02561 | 541 ft | 65 kts | 281° |
| 2026-05-07 17:41 | 48.78703 | 2.01702 | 665 ft | 93 kts | 277° |
| 2026-05-07 17:41 | 48.78784 | 2.00712 | 954 ft | 90 kts | 272° |
| 2026-05-07 17:41 | 48.78826 | 1.99747 | 1152 ft | 101 kts | 275° |
| 2026-05-07 17:42 | 48.78857 | 1.98579 | 1235 ft | 122 kts | 269° |
| 2026-05-07 17:42 | 48.78791 | 1.97318 | 1498 ft | 119 kts | 264° |
| 2026-05-07 17:42 | 48.78633 | 1.96101 | 1675 ft | 120 kts | 255° |
| 2026-05-07 17:42 | 48.78191 | 1.95066 | 1771 ft | 113 kts | 223° |
| 2026-05-07 17:43 | 48.77558 | 1.94326 | 1768 ft | 118 kts | 211° |
| 2026-05-07 17:43 | 48.76830 | 1.93798 | 1839 ft | 112 kts | 194° |
| 2026-05-07 17:43 | 48.76121 | 1.93805 | 1899 ft | 92 kts | 162° |
| 2026-05-07 17:43 | 48.75536 | 1.94167 | 1732 ft | 88 kts | 152° |
| 2026-05-07 17:44 | 48.75000 | 1.94566 | 1539 ft | 87 kts | 150° |
| 2026-05-07 17:44 | 48.74461 | 1.94995 | 1361 ft | 86 kts | 151° |
| 2026-05-07 17:44 | 48.73955 | 1.95469 | 1168 ft | 84 kts | 140° |
| 2026-05-07 17:44 | 48.73517 | 1.96048 | 1011 ft | 85 kts | 130° |
| 2026-05-07 17:45 | 48.73102 | 1.96932 | 1184 ft | 112 kts | 117° |
| 2026-05-07 17:45 | 48.72852 | 1.98065 | 1528 ft | 116 kts | 99° |
| 2026-05-07 17:45 | 48.72786 | 1.99320 | 1743 ft | 122 kts | 89° |
| 2026-05-07 17:45 | 48.72949 | 2.00554 | 1769 ft | 113 kts | 71° |
| 2026-05-07 17:46 | 48.73215 | 2.01624 | 1659 ft | 107 kts | 66° |
| 2026-05-07 17:46 | 48.73483 | 2.02630 | 1529 ft | 99 kts | 71° |
| 2026-05-07 17:46 | 48.73694 | 2.03637 | 1363 ft | 102 kts | 72° |
| 2026-05-07 17:46 | 48.73923 | 2.04548 | 1250 ft | 79 kts | 70° |
| 2026-05-07 17:47 | 48.74098 | 2.05300 | 1138 ft | 77 kts | 68° |
| 2026-05-07 17:47 | 48.74281 | 2.06057 | 1074 ft | 78 kts | 73° |
| 2026-05-07 17:47 | 48.74445 | 2.06843 | 998 ft | 79 kts | 73° |
| 2026-05-07 17:47 | 48.74620 | 2.07638 | 913 ft | 80 kts | 70° |
| 2026-05-07 17:48 | 48.74804 | 2.08435 | 777 ft | 79 kts | 73° |
| 2026-05-07 17:48 | 48.74976 | 2.09211 | 654 ft | 77 kts | 72° |
| 2026-05-07 17:48 | 48.75146 | 2.09972 | 548 ft | 74 kts | 72° |
| 2026-05-07 17:48 | 48.75268 | 2.10536 | 548 ft | 43 kts | 71° |
| 2026-05-07 17:49 | 48.75353 | 2.10909 | 546 ft | 34 kts | 72° |
| 2026-05-07 17:49 | 48.75419 | 2.11219 | 546 ft | 23 kts | 82° |
| 2026-05-07 17:49 | 48.75374 | 2.11449 | 547 ft | 24 kts | 111° |
| 2026-05-07 17:49 | 48.75282 | 2.11585 | 547 ft | 21 kts | 185° |
| 2026-05-07 17:50 | 48.75182 | 2.11486 | 547 ft | 17 kts | 171° |
| 2026-05-07 17:50 | 48.75085 | 2.11537 | 547 ft | 0 kts | 159° |
| 2026-05-07 17:50 | 48.75067 | 2.11562 | 547 ft | 7 kts | 107° |
| 2026-05-07 17:50 | 48.75051 | 2.11658 | 547 ft | 10 kts | 78° |
| 2026-05-07 17:51 | 48.75062 | 2.11691 | 547 ft | 0 kts | 100° |
| 2026-05-07 17:59 | 48.75060 | 2.11697 | 547 ft | 1 kts | 148° |
| 2026-05-07 17:59 | 48.75049 | 2.11660 | 547 ft | 9 kts | 287° |
| 2026-05-07 17:59 | 48.75076 | 2.11522 | 547 ft | 18 kts | 289° |
| 2026-05-07 18:00 | 48.75168 | 2.11454 | 547 ft | 14 kts | 342° |
| 2026-05-07 18:00 | 48.75234 | 2.11554 | 547 ft | 17 kts | 40° |
| 2026-05-07 18:00 | 48.75351 | 2.11535 | 547 ft | 21 kts | 301° |
| 2026-05-07 18:00 | 48.75410 | 2.11310 | 546 ft | 26 kts | 290° |
| 2026-05-07 18:01 | 48.75403 | 2.11127 | 545 ft | 0 kts | 251° |
| 2026-05-07 18:01 | 48.75388 | 2.11064 | 545 ft | 33 kts | 249° |
| 2026-05-07 18:01 | 48.75227 | 2.10427 | 615 ft | 83 kts | 246° |
| 2026-05-07 18:01 | 48.75037 | 2.09500 | 759 ft | 98 kts | 250° |
| 2026-05-07 18:02 | 48.74586 | 2.07470 | 1126 ft | 91 kts | 248° |
| 2026-05-07 18:02 | 48.74225 | 2.06651 | 1367 ft | 95 kts | 212° |
| 2026-05-07 18:02 | 48.73538 | 2.06560 | 1544 ft | 111 kts | 155° |
| 2026-05-07 18:03 | 48.73064 | 2.07422 | 1844 ft | 109 kts | 96° |
| 2026-05-07 18:03 | 48.72977 | 2.08552 | 2105 ft | 116 kts | 95° |
| 2026-05-07 18:03 | 48.72857 | 2.09818 | 2342 ft | 120 kts | 94° |
| 2026-05-07 18:03 | 48.72923 | 2.11108 | 2521 ft | 127 kts | 77° |
| 2026-05-07 18:04 | 48.73085 | 2.12440 | 2675 ft | 127 kts | 87° |
| 2026-05-07 18:04 | 48.72735 | 2.13638 | 2876 ft | 123 kts | 117° |
| 2026-05-07 18:04 | 48.72776 | 2.14877 | 3048 ft | 123 kts | 55° |
| 2026-05-07 18:04 | 48.73378 | 2.15800 | 3029 ft | 123 kts | 50° |
| 2026-05-07 18:05 | 48.74100 | 2.16332 | 2976 ft | 121 kts | 358° |
| 2026-05-07 18:05 | 48.74833 | 2.15804 | 2985 ft | 116 kts | 330° |
| 2026-05-07 18:05 | 48.75546 | 2.15213 | 2988 ft | 118 kts | 333° |
| 2026-05-07 18:05 | 48.76264 | 2.14604 | 2989 ft | 118 kts | 333° |
| 2026-05-07 18:06 | 48.76980 | 2.13996 | 2994 ft | 119 kts | 333° |
| 2026-05-07 18:06 | 48.77701 | 2.13383 | 2992 ft | 119 kts | 333° |
| 2026-05-07 18:06 | 48.78390 | 2.12714 | 2980 ft | 117 kts | 315° |
| 2026-05-07 18:06 | 48.78648 | 2.11562 | 2979 ft | 115 kts | 288° |
| 2026-05-07 18:07 | 48.79027 | 2.10509 | 2981 ft | 113 kts | 313° |
| 2026-05-07 18:07 | 48.79609 | 2.09721 | 2935 ft | 110 kts | 320° |
| 2026-05-07 18:07 | 48.80152 | 2.08956 | 2709 ft | 105 kts | 320° |
| 2026-05-07 18:07 | 48.80686 | 2.08205 | 2467 ft | 105 kts | 320° |
| 2026-05-07 18:08 | 48.81221 | 2.07454 | 2233 ft | 105 kts | 319° |
| 2026-05-07 18:08 | 48.81757 | 2.06701 | 2009 ft | 105 kts | 320° |
| 2026-05-07 18:08 | 48.82281 | 2.05923 | 1746 ft | 103 kts | 316° |
| 2026-05-07 18:08 | 48.82735 | 2.05110 | 1489 ft | 101 kts | 310° |
| 2026-05-07 18:09 | 48.83127 | 2.04241 | 1255 ft | 99 kts | 306° |
| 2026-05-07 18:09 | 48.83586 | 2.03588 | 1073 ft | 90 kts | 309° |
| 2026-05-07 18:09 | 48.83676 | 2.02712 | 933 ft | 88 kts | 252° |
| 2026-05-07 18:09 | 48.83224 | 2.02282 | 857 ft | 85 kts | 164° |
| 2026-05-07 18:10 | 48.82876 | 2.02939 | 983 ft | 87 kts | 114° |
| 2026-05-07 18:10 | 48.82451 | 2.03641 | 931 ft | 86 kts | 140° |
| 2026-05-07 18:10 | 48.82057 | 2.04204 | 825 ft | 72 kts | 123° |
| 2026-05-07 18:10 | 48.81826 | 2.04859 | 699 ft | 75 kts | 111° |
| 2026-05-07 18:11 | 48.81624 | 2.05631 | 568 ft | 81 kts | 111° |
| 2026-05-07 18:11 | 48.81483 | 2.06155 | 470 ft | 77 kts | 109° |
| 2026-05-07 18:11 | 48.81241 | 2.07002 | 382 ft | 39 kts | 112° |
| 2026-05-07 18:11 | 48.81160 | 2.07287 | 380 ft | 24 kts | 127° |
| 2026-05-07 18:12 | 48.81030 | 2.07387 | 380 ft | 23 kts | 175° |
| 2026-05-07 18:12 | 48.80891 | 2.07355 | 380 ft | 13 kts | 212° |
| 2026-05-07 18:12 | 48.80924 | 2.07245 | 380 ft | 17 kts | 312° |
| 2026-05-07 18:12 | 48.81006 | 2.07076 | 380 ft | 22 kts | 311° |
| 2026-05-07 18:13 | 48.81020 | 2.06945 | 380 ft | 3 kts | 137° |
| 2026-05-07 18:13 | 48.81019 | 2.06946 | 380 ft | 0 kts | 128° |